createdAt,value
2022-09-27T00:01:07.839Z,12.47
2022-09-27T00:03:34.495Z,12.69
2022-09-27T00:06:09.017Z,12.69
2022-09-27T00:08:37.028Z,12.54
2022-09-27T00:11:06.345Z,12.55
2022-09-27T00:13:33.427Z,12.47
2022-09-27T00:16:05.362Z,12.45
2022-09-27T00:18:33.514Z,12.59
2022-09-27T00:21:11.371Z,12.48
2022-09-27T00:23:39.308Z,12.44
2022-09-27T00:26:08.129Z,12.52
2022-09-27T00:28:34.930Z,12.60
2022-09-27T00:31:01.987Z,12.50
2022-09-27T00:33:28.676Z,12.54
2022-09-27T00:35:55.376Z,12.55
2022-09-27T00:38:22.007Z,12.63
2022-09-27T00:40:48.677Z,12.63
2022-09-27T00:43:22.444Z,12.62
2022-09-27T00:46:03.402Z,12.70
2022-09-27T00:48:33.031Z,12.64
2022-09-27T00:51:03.517Z,12.61
2022-09-27T00:53:37.826Z,12.68
2022-09-27T00:56:12.639Z,12.73
2022-09-27T00:58:45.085Z,12.71
2022-09-27T01:01:14.131Z,12.74
2022-09-27T01:03:45.215Z,12.75
2022-09-27T01:06:12.367Z,12.78
2022-09-27T01:08:39.329Z,12.76
2022-09-27T01:11:09.005Z,12.78
2022-09-27T01:13:49.194Z,12.78
2022-09-27T01:16:26.632Z,12.81
2022-09-27T01:19:16.606Z,12.84
2022-09-27T01:22:02.136Z,12.81
2022-09-27T01:24:48.909Z,12.85
2022-09-27T01:27:41.407Z,12.84
2022-09-27T01:30:29.662Z,12.87
2022-09-27T01:33:33.118Z,12.94
2022-09-27T01:36:32.112Z,12.96
2022-09-27T01:39:21.311Z,12.98
2022-09-27T01:42:22.967Z,13.01
2022-09-27T01:45:03.615Z,13.05
2022-09-27T01:47:45.436Z,13.08
2022-09-27T01:50:47.141Z,13.07
2022-09-27T01:53:34.287Z,13.10
2022-09-27T01:56:40.932Z,13.17
2022-09-27T01:59:21.077Z,13.19
2022-09-27T02:02:00.256Z,13.16
2022-09-27T02:04:38.809Z,13.15
2022-09-27T02:07:23.856Z,13.15
2022-09-27T02:09:59.754Z,13.19
2022-09-27T02:12:46.220Z,13.23
2022-09-27T02:15:15.214Z,13.30
2022-09-27T02:17:53.264Z,13.33
2022-09-27T02:20:30.162Z,13.30
2022-09-27T02:23:21.158Z,13.27
2022-09-27T02:26:02.747Z,13.24
2022-09-27T02:28:45.770Z,13.25
2022-09-27T02:31:20.226Z,13.28
2022-09-27T02:33:52.423Z,13.28
2022-09-27T02:36:20.261Z,13.25
2022-09-27T02:38:47.223Z,13.26
2022-09-27T02:41:18.697Z,13.26
2022-09-27T02:43:49.821Z,13.33
2022-09-27T02:46:53.159Z,13.32
2022-09-27T02:49:30.431Z,13.32
2022-09-27T02:52:50.901Z,13.34
2022-09-27T02:55:20.677Z,13.31
2022-09-27T02:58:31.824Z,13.29
2022-09-27T03:01:35.107Z,13.25
2022-09-27T03:04:38.478Z,13.22
2022-09-27T03:07:06.123Z,13.21
2022-09-27T03:09:48.027Z,13.24
2022-09-27T03:12:22.451Z,13.23
2022-09-27T03:14:49.707Z,13.23
2022-09-27T03:17:51.592Z,13.25
2022-09-27T03:20:31.453Z,13.26
2022-09-27T03:23:24.334Z,13.30
2022-09-27T03:25:51.817Z,13.28
2022-09-27T03:28:19.014Z,13.25
2022-09-27T03:30:46.505Z,13.25
2022-09-27T03:33:22.591Z,13.30
2022-09-27T03:35:57.468Z,13.31
2022-09-27T03:38:24.173Z,13.30
2022-09-27T03:40:51.113Z,13.30
2022-09-27T03:43:17.801Z,13.30
2022-09-27T03:45:47.216Z,13.29
2022-09-27T03:48:14.329Z,13.24
2022-09-27T03:50:41.216Z,13.21
2022-09-27T03:53:08.158Z,13.19
2022-09-27T03:55:35.651Z,13.20
2022-09-27T03:58:02.742Z,13.16
2022-09-27T04:00:32.687Z,13.10
2022-09-27T04:03:00.250Z,13.12
2022-09-27T04:05:28.806Z,13.12
2022-09-27T04:08:02.427Z,13.14
2022-09-27T04:10:31.686Z,13.14
2022-09-27T04:12:58.692Z,13.11
2022-09-27T04:15:29.218Z,13.08
2022-09-27T04:18:14.691Z,13.06
2022-09-27T04:21:07.231Z,13.07
2022-09-27T04:23:36.529Z,13.06
2022-09-27T04:26:03.698Z,13.07
2022-09-27T04:28:54.537Z,13.09
2022-09-27T04:31:22.297Z,13.11
2022-09-27T04:34:16.369Z,13.13
2022-09-27T04:36:43.139Z,13.17
2022-09-27T04:39:15.131Z,13.18
2022-09-27T04:41:45.015Z,13.23
2022-09-27T04:44:11.905Z,13.35
2022-09-27T04:46:41.327Z,13.39
2022-09-27T04:49:08.125Z,13.47
2022-09-27T04:51:36.341Z,13.52
2022-09-27T04:54:04.800Z,13.54
2022-09-27T04:56:34.869Z,13.54
2022-09-27T04:59:08.289Z,13.48
2022-09-27T05:01:37.115Z,13.39
2022-09-27T05:04:42.286Z,13.35
2022-09-27T05:07:10.112Z,13.39
2022-09-27T05:09:42.413Z,13.39
2022-09-27T05:12:09.269Z,13.37
2022-09-27T05:14:54.927Z,13.38
2022-09-27T05:17:43.773Z,13.39
2022-09-27T05:20:10.772Z,13.40
2022-09-27T05:22:44.088Z,13.41
2022-09-27T05:25:11.447Z,13.40
2022-09-27T05:27:38.927Z,13.43
2022-09-27T05:30:08.015Z,13.39
2022-09-27T05:32:50.677Z,13.38
2022-09-27T05:35:26.418Z,13.44
2022-09-27T05:37:59.261Z,13.45
2022-09-27T05:40:44.670Z,13.44
2022-09-27T05:43:12.125Z,13.46
2022-09-27T05:45:41.076Z,13.46
2022-09-27T05:48:08.264Z,13.45
2022-09-27T05:50:45.708Z,13.45
2022-09-27T05:53:13.403Z,13.50
2022-09-27T05:55:41.291Z,13.49
2022-09-27T05:58:10.293Z,13.48
2022-09-27T06:00:48.344Z,13.50
2022-09-27T06:03:51.373Z,13.53
2022-09-27T06:06:38.417Z,13.60
2022-09-27T06:09:11.058Z,13.66
2022-09-27T06:11:40.646Z,13.69
2022-09-27T06:14:11.685Z,13.74
2022-09-27T06:16:51.009Z,13.80
2022-09-27T06:19:17.787Z,13.82
2022-09-27T06:21:44.440Z,13.85
2022-09-27T06:24:12.661Z,13.86
2022-09-27T06:26:39.552Z,13.89
2022-09-27T06:29:30.312Z,13.92
2022-09-27T06:32:01.132Z,13.91
2022-09-27T06:34:41.699Z,13.93
2022-09-27T06:37:08.390Z,13.94
2022-09-27T06:39:35.226Z,13.99
2022-09-27T06:42:31.116Z,14.03
2022-09-27T06:45:10.744Z,14.07
2022-09-27T06:47:57.043Z,14.13
2022-09-27T06:50:31.112Z,14.12
2022-09-27T06:52:57.852Z,14.18
2022-09-27T06:55:25.342Z,14.22
2022-09-27T06:58:15.330Z,14.23
2022-09-27T07:00:54.371Z,14.21
2022-09-27T07:03:43.238Z,14.23
2022-09-27T07:06:24.286Z,14.22
2022-09-27T07:09:08.546Z,14.26
2022-09-27T07:11:36.758Z,14.27
2022-09-27T07:14:08.175Z,14.34
2022-09-27T07:16:34.990Z,14.40
2022-09-27T07:19:05.521Z,14.37
2022-09-27T07:21:33.238Z,14.41
2022-09-27T07:24:00.495Z,14.42
2022-09-27T07:26:27.721Z,14.46
2022-09-27T07:28:54.805Z,14.52
2022-09-27T07:31:22.598Z,14.57
2022-09-27T07:33:49.262Z,14.58
2022-09-27T07:36:16.012Z,14.55
2022-09-27T07:38:44.739Z,14.59
2022-09-27T07:41:14.135Z,14.66
2022-09-27T07:43:45.096Z,14.43
2022-09-27T07:46:13.464Z,14.52
2022-09-27T07:48:51.699Z,14.55
2022-09-27T07:51:37.021Z,14.62
2022-09-27T07:54:31.422Z,14.62
2022-09-27T07:57:16.642Z,14.67
2022-09-27T07:59:47.698Z,14.65
2022-09-27T08:02:18.337Z,14.68
2022-09-27T08:04:49.103Z,14.70
2022-09-27T08:07:16.363Z,14.70
2022-09-27T08:09:45.896Z,14.74
2022-09-27T08:12:13.274Z,14.70
2022-09-27T08:14:45.082Z,14.62
2022-09-27T08:17:19.386Z,14.45
2022-09-27T08:20:06.943Z,14.48
2022-09-27T08:23:06.182Z,14.40
2022-09-27T08:25:40.094Z,14.42
2022-09-27T08:28:27.377Z,14.48
2022-09-27T08:31:00.245Z,14.46
2022-09-27T08:33:31.945Z,14.45
2022-09-27T08:35:59.487Z,14.41
2022-09-27T08:38:26.161Z,14.46
2022-09-27T08:41:20.369Z,14.52
2022-09-27T08:44:04.818Z,14.61
2022-09-27T08:47:08.943Z,14.67
2022-09-27T08:49:38.733Z,14.58
2022-09-27T08:52:13.189Z,14.34
2022-09-27T08:54:40.294Z,14.41
2022-09-27T08:57:16.957Z,14.29
2022-09-27T08:59:55.095Z,14.20
2022-09-27T09:02:27.436Z,14.01
2022-09-27T09:05:03.167Z,14.03
2022-09-27T09:07:48.059Z,13.93
2022-09-27T09:10:45.664Z,13.84
2022-09-27T09:13:41.135Z,13.77
2022-09-27T09:16:08.551Z,13.74
2022-09-27T09:19:01.218Z,13.70
2022-09-27T09:21:54.946Z,13.75
2022-09-27T09:24:37.018Z,13.83
2022-09-27T09:27:33.874Z,13.82
2022-09-27T09:30:13.038Z,13.85
2022-09-27T09:33:08.237Z,13.81
2022-09-27T09:35:39.402Z,13.80
2022-09-27T09:38:18.509Z,13.83
2022-09-27T09:40:52.076Z,13.77
2022-09-27T09:43:31.202Z,13.75
2022-09-27T09:46:10.394Z,13.69
2022-09-27T09:48:42.083Z,13.74
2022-09-27T09:51:19.456Z,13.73
2022-09-27T09:53:51.569Z,13.72
2022-09-27T09:56:22.714Z,13.77
2022-09-27T09:59:32.602Z,13.82
2022-09-27T10:02:15.032Z,13.74
2022-09-27T10:04:41.866Z,13.64
2022-09-27T10:07:08.661Z,13.53
2022-09-27T10:09:36.494Z,13.58
2022-09-27T10:12:22.079Z,13.60
2022-09-27T10:14:51.887Z,13.64
2022-09-27T10:17:25.366Z,13.71
2022-09-27T10:19:54.208Z,13.84
2022-09-27T10:22:25.159Z,13.99
2022-09-27T10:25:08.010Z,14.14
2022-09-27T10:27:56.136Z,14.25
2022-09-27T10:30:33.014Z,14.22
2022-09-27T10:33:07.752Z,14.22
2022-09-27T10:35:45.095Z,14.28
2022-09-27T10:38:20.478Z,14.30
2022-09-27T10:40:53.183Z,14.35
2022-09-27T10:43:29.388Z,14.41
2022-09-27T10:46:23.669Z,14.53
2022-09-27T10:49:26.825Z,14.34
2022-09-27T10:52:06.440Z,14.29
2022-09-27T10:54:37.798Z,14.22
2022-09-27T10:57:23.125Z,14.28
2022-09-27T10:59:56.506Z,14.16
2022-09-27T11:02:35.818Z,14.10
2022-09-27T11:05:15.625Z,14.15
2022-09-27T11:07:55.518Z,14.09
2022-09-27T11:10:37.345Z,14.08
2022-09-27T11:13:12.492Z,13.86
2022-09-27T11:16:07.541Z,13.77
2022-09-27T11:19:04.505Z,13.71
2022-09-27T11:21:40.135Z,13.83
2022-09-27T11:24:32.599Z,13.84
2022-09-27T11:27:33.158Z,13.85
2022-09-27T11:30:09.749Z,13.97
2022-09-27T11:34:02.369Z,13.92
2022-09-27T11:36:57.742Z,13.90
2022-09-27T11:39:51.178Z,13.87
2022-09-27T11:42:33.300Z,13.77
2022-09-27T11:45:56.378Z,13.71
2022-09-27T11:48:27.554Z,13.69
2022-09-27T11:51:18.967Z,13.72
2022-09-27T11:53:51.635Z,13.76
2022-09-27T11:56:29.480Z,13.70
2022-09-27T11:59:04.994Z,13.65
2022-09-27T12:01:50.287Z,13.72
2022-09-27T12:04:44.862Z,13.77
2022-09-27T12:07:25.531Z,13.85
2022-09-27T12:10:00.209Z,13.90
2022-09-27T12:12:31.969Z,13.91
2022-09-27T12:15:07.167Z,14.06
2022-09-27T12:17:43.199Z,14.10
2022-09-27T12:20:24.598Z,14.09
2022-09-27T12:22:59.934Z,14.17
2022-09-27T12:26:03.147Z,14.15
2022-09-27T12:28:54.222Z,14.05
2022-09-27T12:31:30.497Z,14.00
2022-09-27T12:34:19.334Z,13.98
2022-09-27T12:36:56.030Z,13.95
2022-09-27T12:39:41.782Z,13.95
2022-09-27T12:42:32.022Z,13.97
2022-09-27T12:45:01.913Z,13.98
2022-09-27T12:48:07.028Z,14.07
2022-09-27T12:50:46.566Z,14.09
2022-09-27T12:53:23.367Z,14.22
2022-09-27T12:56:17.214Z,14.34
2022-09-27T12:59:02.730Z,14.43
2022-09-27T13:01:59.973Z,14.53
2022-09-27T13:04:38.673Z,14.59
2022-09-27T13:07:17.759Z,14.65
2022-09-27T13:10:01.807Z,14.58
2022-09-27T13:12:32.267Z,14.57
2022-09-27T13:15:15.062Z,14.61
2022-09-27T13:17:42.370Z,14.75
2022-09-27T13:20:31.049Z,14.80
2022-09-27T13:23:00.006Z,14.92
2022-09-27T13:25:55.454Z,14.86
2022-09-27T13:28:48.148Z,14.84
2022-09-27T13:31:59.883Z,14.73
2022-09-27T13:34:41.643Z,14.71
2022-09-27T13:37:28.847Z,14.79
2022-09-27T13:40:15.141Z,14.58
2022-09-27T13:43:11.274Z,14.41
2022-09-27T13:45:56.276Z,14.35
2022-09-27T13:48:43.300Z,14.37
2022-09-27T13:51:16.693Z,14.28
2022-09-27T13:53:55.108Z,14.26
2022-09-27T13:56:37.821Z,14.00
2022-09-27T13:59:13.761Z,13.82
2022-09-27T14:02:16.868Z,13.80
2022-09-27T14:04:51.508Z,13.70
2022-09-27T14:07:26.801Z,13.65
2022-09-27T14:10:00.473Z,13.54
2022-09-27T14:12:36.689Z,13.54
2022-09-27T14:15:14.025Z,13.51
2022-09-27T14:17:45.980Z,13.59
2022-09-27T14:20:52.636Z,13.60
2022-09-27T14:23:39.498Z,13.66
2022-09-27T14:26:06.564Z,13.61
2022-09-27T14:28:41.683Z,13.52
2022-09-27T14:31:31.378Z,13.50
2022-09-27T14:34:13.142Z,13.60
2022-09-27T14:37:04.006Z,13.56
2022-09-27T14:39:37.948Z,13.53
2022-09-27T14:42:28.511Z,13.47
2022-09-27T14:45:01.492Z,13.47
2022-09-27T14:47:32.274Z,13.47
2022-09-27T14:50:16.948Z,13.50
2022-09-27T14:52:43.726Z,13.51
2022-09-27T14:55:19.113Z,13.46
2022-09-27T14:57:56.687Z,13.53
2022-09-27T15:00:26.247Z,13.68
2022-09-27T15:02:55.885Z,13.72
2022-09-27T15:05:27.305Z,13.74
2022-09-27T15:07:58.458Z,13.73
2022-09-27T15:10:27.829Z,13.79
2022-09-27T15:13:01.149Z,13.83
2022-09-27T15:15:33.850Z,13.84
2022-09-27T15:18:01.826Z,13.85
2022-09-27T15:20:32.332Z,13.89
2022-09-27T15:23:03.659Z,13.86
2022-09-27T15:25:36.926Z,13.91
2022-09-27T15:28:20.127Z,13.95
2022-09-27T15:30:57.335Z,13.95
2022-09-27T15:33:27.209Z,13.97
2022-09-27T15:35:56.275Z,13.94
2022-09-27T15:38:25.479Z,14.01
2022-09-27T15:40:52.123Z,14.04
2022-09-27T15:51:51.677Z,14.23
2022-09-27T15:54:22.371Z,14.27
2022-09-27T15:56:55.038Z,14.25
2022-09-27T15:59:27.837Z,14.27
2022-09-27T16:01:56.792Z,14.25
2022-09-27T16:04:23.552Z,14.23
2022-09-27T16:06:50.403Z,14.20
2022-09-27T16:09:18.930Z,14.17
2022-09-27T16:11:47.573Z,14.11
2022-09-27T16:14:18.290Z,14.04
2022-09-27T16:16:47.636Z,14.03
2022-09-27T16:19:14.311Z,13.97
2022-09-27T16:21:42.912Z,13.99
2022-09-27T16:24:12.638Z,14.01
2022-09-27T16:26:41.087Z,13.99
2022-09-27T16:29:13.608Z,13.99
2022-09-27T16:31:41.295Z,14.05
2022-09-27T16:34:13.769Z,14.07
2022-09-27T16:36:41.873Z,14.11
2022-09-27T16:39:12.767Z,13.96
2022-09-27T16:41:43.501Z,13.92
2022-09-27T16:44:12.922Z,13.88
2022-09-27T16:46:41.505Z,13.93
2022-09-27T16:49:28.790Z,13.89
2022-09-27T16:52:01.356Z,13.84
2022-09-27T16:54:29.408Z,13.78
2022-09-27T16:56:57.750Z,13.75
2022-09-27T16:59:27.716Z,13.68
2022-09-27T17:01:58.078Z,13.66
2022-09-27T17:04:27.603Z,13.62
2022-09-27T17:06:56.369Z,13.65
2022-09-27T17:09:23.163Z,13.69
2022-09-27T17:11:50.252Z,13.66
2022-09-27T17:14:18.024Z,13.69
2022-09-27T17:16:46.011Z,13.71
2022-09-27T17:19:14.283Z,13.70
2022-09-27T17:21:42.386Z,13.74
2022-09-27T17:24:09.679Z,13.75
2022-09-27T17:26:36.637Z,13.78
2022-09-27T17:29:07.397Z,13.60
2022-09-27T17:31:37.472Z,13.63
2022-09-27T17:34:04.561Z,13.74
2022-09-27T17:36:37.718Z,13.79
2022-09-27T17:39:05.211Z,13.70
2022-09-27T17:41:37.589Z,13.73
2022-09-27T17:44:09.643Z,13.79
2022-09-27T17:46:37.279Z,13.74
2022-09-27T17:49:23.182Z,13.66
2022-09-27T17:51:52.622Z,13.66
2022-09-27T17:54:22.685Z,13.65
2022-09-27T17:56:52.169Z,13.66
2022-09-27T17:59:18.858Z,13.59
2022-09-27T18:01:47.761Z,13.53
2022-09-27T18:04:17.108Z,13.54
2022-09-27T18:06:46.584Z,13.49
2022-09-27T18:09:16.039Z,13.47
2022-09-27T18:11:44.250Z,13.44
2022-09-27T18:14:11.228Z,13.43
2022-09-27T18:16:42.868Z,13.36
2022-09-27T18:19:17.050Z,13.37
2022-09-27T18:21:45.240Z,13.44
2022-09-27T18:24:14.071Z,13.59
2022-09-27T18:26:41.370Z,13.65
2022-09-27T18:29:11.663Z,13.62
2022-09-27T18:31:40.173Z,13.55
2022-09-27T18:34:07.667Z,13.56
2022-09-27T18:36:34.466Z,13.51
2022-09-27T18:39:04.400Z,13.49
2022-09-27T18:41:35.285Z,13.49
2022-09-27T18:44:06.496Z,13.46
2022-09-27T18:46:36.847Z,13.39
2022-09-27T18:49:06.178Z,13.40
2022-09-27T18:51:37.902Z,13.34
2022-09-27T18:56:59.917Z,13.41
2022-09-27T18:59:31.993Z,13.52
2022-09-27T19:01:58.676Z,13.58
2022-09-27T19:04:28.323Z,13.55
2022-09-27T19:06:56.541Z,13.60
2022-09-27T19:09:26.988Z,13.59
2022-09-27T19:11:53.976Z,13.58
2022-09-27T19:14:22.568Z,13.60
2022-09-27T19:16:49.613Z,13.63
2022-09-27T19:19:17.273Z,13.63
2022-09-27T19:21:44.534Z,13.50
2022-09-27T19:24:11.794Z,13.43
2022-09-27T19:26:38.593Z,13.33
2022-09-27T19:29:07.315Z,13.43
2022-09-27T19:31:38.044Z,13.48
2022-09-27T19:34:04.803Z,13.56
2022-09-27T19:36:34.150Z,13.52
2022-09-27T19:39:03.782Z,13.58
2022-09-27T19:41:31.258Z,13.54
2022-09-27T19:43:59.646Z,13.43
2022-09-27T19:46:27.017Z,13.42
2022-09-27T19:48:57.111Z,13.45
2022-09-27T19:51:26.141Z,13.45
2022-09-27T19:53:57.033Z,13.45
2022-09-27T19:56:24.284Z,13.49
2022-09-27T19:58:51.199Z,13.57
2022-09-27T20:01:23.126Z,13.54
2022-09-27T20:03:53.644Z,13.57
2022-09-27T20:06:23.721Z,13.60
2022-09-27T20:08:53.567Z,13.62
2022-09-27T20:11:23.654Z,13.59
2022-09-27T20:13:52.871Z,13.61
2022-09-27T20:16:24.580Z,13.63
2022-09-27T20:18:56.155Z,13.65
2022-09-27T20:21:35.444Z,13.66
2022-09-27T20:24:05.757Z,13.63
2022-09-27T20:26:38.010Z,13.70
2022-09-27T20:29:06.391Z,13.69
2022-09-27T20:32:01.527Z,13.69
2022-09-27T20:34:28.995Z,13.67
2022-09-27T20:36:55.919Z,13.60
2022-09-27T20:39:23.772Z,13.62
2022-09-27T20:41:51.051Z,13.65
2022-09-27T20:44:21.272Z,13.63
2022-09-27T20:46:50.279Z,13.65
2022-09-27T20:52:02.476Z,13.60
2022-09-27T20:54:29.617Z,13.67
2022-09-27T20:56:57.202Z,13.61
2022-09-27T20:59:25.259Z,13.64
2022-09-27T21:01:53.476Z,13.67
2022-09-27T21:04:27.292Z,13.61
2022-09-27T21:06:54.216Z,13.53
2022-09-27T21:09:21.245Z,13.50
2022-09-27T21:11:49.509Z,13.51
2022-09-27T21:14:17.664Z,13.54
2022-09-27T21:16:44.681Z,13.53
2022-09-27T21:19:11.600Z,13.52
2022-09-27T21:21:39.081Z,13.49
2022-09-27T21:24:06.130Z,13.48
2022-09-27T21:26:34.027Z,13.47
2022-09-27T21:29:09.533Z,13.52
2022-09-27T21:31:41.663Z,13.60
2022-09-27T21:34:08.620Z,13.58
2022-09-27T21:36:38.267Z,13.52
2022-09-27T21:39:09.661Z,13.58
2022-09-27T21:41:39.791Z,13.65
2022-09-27T21:44:09.636Z,13.66
2022-09-27T21:46:40.436Z,13.69
2022-09-27T21:49:08.174Z,13.66
2022-09-27T21:51:41.316Z,13.68
2022-09-27T21:54:11.256Z,13.62
2022-09-27T21:56:39.521Z,13.68
2022-09-27T21:59:09.511Z,13.69
2022-09-27T22:01:37.361Z,13.63
2022-09-27T22:04:09.133Z,13.67
2022-09-27T22:06:44.952Z,13.62
2022-09-27T22:09:19.133Z,13.63
2022-09-27T22:11:50.210Z,13.63
2022-09-27T22:14:18.161Z,13.62
2022-09-27T22:16:45.172Z,13.60
2022-09-27T22:19:15.479Z,13.57
2022-09-27T22:21:45.173Z,13.53
2022-09-27T22:24:15.025Z,13.53
2022-09-27T22:26:45.484Z,13.47
2022-09-27T22:29:15.581Z,13.52
2022-09-27T22:31:42.391Z,13.50
2022-09-27T22:34:20.594Z,13.51
2022-09-27T22:36:47.185Z,13.45
2022-09-27T22:39:13.938Z,13.41
2022-09-27T22:41:42.783Z,13.41
2022-09-27T22:44:09.396Z,13.39
2022-09-27T22:46:38.501Z,13.44
2022-09-27T22:49:05.092Z,13.40
2022-09-27T22:51:31.618Z,13.40
2022-09-27T22:53:58.310Z,13.37
2022-09-27T22:56:25.333Z,13.37
2022-09-27T22:58:51.971Z,13.37
2022-09-27T23:01:21.553Z,13.39
2022-09-27T23:03:55.735Z,13.40
2022-09-27T23:06:23.293Z,13.33
2022-09-27T23:08:51.297Z,13.32
2022-09-27T23:11:20.355Z,13.25
2022-09-27T23:13:48.452Z,13.29
2022-09-27T23:16:20.881Z,13.28
2022-09-27T23:18:50.335Z,13.20
2022-09-27T23:21:16.934Z,13.22
2022-09-27T23:23:45.196Z,13.19
2022-09-27T23:26:15.007Z,13.17
2022-09-27T23:28:42.356Z,13.16
2022-09-27T23:31:08.964Z,13.22
2022-09-27T23:33:43.763Z,13.25
2022-09-27T23:36:16.848Z,13.29
2022-09-27T23:38:45.607Z,13.28
2022-09-27T23:41:13.402Z,13.23
2022-09-27T23:43:40.028Z,13.19
2022-09-27T23:46:09.108Z,13.20
2022-09-27T23:48:39.879Z,13.23
2022-09-27T23:51:08.877Z,13.25
2022-09-27T23:53:36.412Z,13.26
2022-09-27T23:56:05.794Z,13.27
2022-09-27T23:58:40.527Z,13.22
